Decatur, GA (30032)

7:44 AM EDT on August 25, 2016 (GMT -0400)
Historic Avondale Traffic Circle | | Change Station

Elev 1096 ft 33.77 °N, 84.26 °W | Updated 8 minutes ago

Clear
Clear
69.4 °F
Feels Like 69.4 °F
N
0.0
Wind Variable Wind from West

Today
High -- | Low -- °F
--% Chance of Precip.
Yesterday
High -- | Low -- °F
Precip. -- in
Pressure 30.16 in
Visibility 10.0 miles
Clouds Clear
Dew Point 52 °F
Humidity 55%
Rainfall 0.00 in
Snow Depth Not available.
7:06 AM 8:10 PM
Last Quarter, 46% visible
METAR KPDK 251053Z 00000KT 10SM CLR 22/20 A3021 RMK AO2 SLP212 T02170200
Pressure 30.16 in
Visibility 10.0 miles
Clouds Clear
Dew Point 52 °F
Humidity 55%
Rainfall 0.00 in
Snow Depth Not available.
7:06 AM 8:10 PM
Last Quarter, 46% visible
METAR KPDK 251053Z 00000KT 10SM CLR 22/20 A3021 RMK AO2 SLP212 T02170200

10-Day Weather Forecast

Almanac

Astronomy

Aug. 25, 2016 Rise Set
Actual Time
Civil Twilight
Nautical Twilight
Astronomical Twilight
Moon
Length of Visible Light
Length of Day
Tomorrow will be .
, % of the Moon is Illuminated

Today's Extremes

State Highs State Lows

Community

WunderPhotos

Upload Photos

1,934,821 photos uploaded!

WunderBlog® & News

Nearby

Air Quality

  Air Quality AQ Index Pollutant
Not available.

Snow Depth

Station Depth Elevation

Earthquake Activity

City Distance Mag. Time & Date
Minimum magnitude displayed is 2.5.

Coastal Water Temperatures

Place Temperature

Stations

Nearby Weather Stations

Station Location Temp. Windchill Dew Point Humidity Wind Precip. Elev Updated Type
                   

Watches & Warnings

There are currently no watches in effect.